sensor_id;sensor_type;location;lat;lon;timestamp;temperature;humidity
22666;DHT22;11499;49.486;11.104;2022-07-01T00:00:24;20.90;92.60
22666;DHT22;11499;49.486;11.104;2022-07-01T00:02:49;20.80;93.20
22666;DHT22;11499;49.486;11.104;2022-07-01T00:05:15;20.70;93.80
22666;DHT22;11499;49.486;11.104;2022-07-01T00:10:28;20.70;94.20
22666;DHT22;11499;49.486;11.104;2022-07-01T00:12:54;20.70;95.20
22666;DHT22;11499;49.486;11.104;2022-07-01T00:15:19;20.60;95.70
22666;DHT22;11499;49.486;11.104;2022-07-01T00:17:45;20.60;96.20
22666;DHT22;11499;49.486;11.104;2022-07-01T00:20:11;20.50;96.50
22666;DHT22;11499;49.486;11.104;2022-07-01T00:22:37;20.50;97.00
22666;DHT22;11499;49.486;11.104;2022-07-01T00:25:03;20.50;97.40
22666;DHT22;11499;49.486;11.104;2022-07-01T00:27:28;20.40;97.70
22666;DHT22;11499;49.486;11.104;2022-07-01T00:29:54;20.40;98.10
22666;DHT22;11499;49.486;11.104;2022-07-01T00:32:19;20.40;98.40
22666;DHT22;11499;49.486;11.104;2022-07-01T00:37:20;20.40;98.50
22666;DHT22;11499;49.486;11.104;2022-07-01T00:39:46;20.40;98.80
22666;DHT22;11499;49.486;11.104;2022-07-01T00:42:11;20.40;98.90
22666;DHT22;11499;49.486;11.104;2022-07-01T00:44:37;20.40;99.10
22666;DHT22;11499;49.486;11.104;2022-07-01T00:47:04;20.40;99.20
22666;DHT22;11499;49.486;11.104;2022-07-01T00:49:33;20.40;99.40
22666;DHT22;11499;49.486;11.104;2022-07-01T00:52:00;20.30;99.50
22666;DHT22;11499;49.486;11.104;2022-07-01T00:54:26;20.20;99.70
22666;DHT22;11499;49.486;11.104;2022-07-01T00:56:52;20.30;99.80
22666;DHT22;11499;49.486;11.104;2022-07-01T00:59:18;20.20;99.80
22666;DHT22;11499;49.486;11.104;2022-07-01T01:04:52;20.10;99.50
22666;DHT22;11499;49.486;11.104;2022-07-01T01:07:17;20.10;99.60
22666;DHT22;11499;49.486;11.104;2022-07-01T01:09:43;20.10;99.90
22666;DHT22;11499;49.486;11.104;2022-07-01T01:12:10;20.00;99.90
22666;DHT22;11499;49.486;11.104;2022-07-01T01:14:47;19.90;99.90
22666;DHT22;11499;49.486;11.104;2022-07-01T01:17:14;19.70;99.90
22666;DHT22;11499;49.486;11.104;2022-07-01T01:19:41;19.50;99.90
22666;DHT22;11499;49.486;11.104;2022-07-01T01:22:08;19.40;99.90
22666;DHT22;11499;49.486;11.104;2022-07-01T01:24:35;19.30;99.90
22666;DHT22;11499;49.486;11.104;2022-07-01T01:27:02;19.20;99.90
22666;DHT22;11499;49.486;11.104;2022-07-01T01:32:52;19.00;99.90
22666;DHT22;11499;49.486;11.104;2022-07-01T01:35:18;19.00;99.90
22666;DHT22;11499;49.486;11.104;2022-07-01T01:37:44;18.90;99.90
22666;DHT22;11499;49.486;11.104;2022-07-01T01:40:10;18.90;99.90
22666;DHT22;11499;49.486;11.104;2022-07-01T01:42:39;18.90;99.90
22666;DHT22;11499;49.486;11.104;2022-07-01T01:45:05;18.80;99.90
22666;DHT22;11499;49.486;11.104;2022-07-01T01:47:31;18.80;99.90
22666;DHT22;11499;49.486;11.104;2022-07-01T01:49:57;18.80;99.90
22666;DHT22;11499;49.486;11.104;2022-07-01T01:52:23;18.70;99.90
22666;DHT22;11499;49.486;11.104;2022-07-01T01:54:48;18.50;99.90
22666;DHT22;11499;49.486;11.104;2022-07-01T01:59:55;18.40;99.90
22666;DHT22;11499;49.486;11.104;2022-07-01T02:02:20;18.40;99.90
22666;DHT22;11499;49.486;11.104;2022-07-01T02:04:46;18.40;99.90
22666;DHT22;11499;49.486;11.104;2022-07-01T02:07:12;18.30;99.90
22666;DHT22;11499;49.486;11.104;2022-07-01T02:09:37;18.10;99.90
22666;DHT22;11499;49.486;11.104;2022-07-01T02:12:03;18.10;99.90
22666;DHT22;11499;49.486;11.104;2022-07-01T02:14:29;18.00;99.90
22666;DHT22;11499;49.486;11.104;2022-07-01T02:16:55;17.90;99.90
22666;DHT22;11499;49.486;11.104;2022-07-01T02:19:20;17.90;99.90
22666;DHT22;11499;49.486;11.104;2022-07-01T02:21:46;17.80;99.90
22666;DHT22;11499;49.486;11.104;2022-07-01T02:26:38;17.80;99.90
22666;DHT22;11499;49.486;11.104;2022-07-01T02:29:04;17.80;99.90
22666;DHT22;11499;49.486;11.104;2022-07-01T02:31:29;17.90;99.90
22666;DHT22;11499;49.486;11.104;2022-07-01T02:33:55;17.90;99.90
22666;DHT22;11499;49.486;11.104;2022-07-01T02:36:20;17.80;99.90
22666;DHT22;11499;49.486;11.104;2022-07-01T02:38:46;17.60;99.90
22666;DHT22;11499;49.486;11.104;2022-07-01T02:41:12;17.70;99.90
22666;DHT22;11499;49.486;11.104;2022-07-01T02:43:37;17.60;99.90
22666;DHT22;11499;49.486;11.104;2022-07-01T02:46:03;17.60;99.90
22666;DHT22;11499;49.486;11.104;2022-07-01T02:51:08;17.50;99.90
22666;DHT22;11499;49.486;11.104;2022-07-01T02:53:34;17.50;99.90
22666;DHT22;11499;49.486;11.104;2022-07-01T02:55:59;17.30;99.90
22666;DHT22;11499;49.486;11.104;2022-07-01T02:58:25;17.30;99.90
22666;DHT22;11499;49.486;11.104;2022-07-01T03:00:51;17.30;99.90
22666;DHT22;11499;49.486;11.104;2022-07-01T03:03:18;17.30;99.90
22666;DHT22;11499;49.486;11.104;2022-07-01T03:05:44;17.30;99.90
22666;DHT22;11499;49.486;11.104;2022-07-01T03:08:09;17.30;99.90
22666;DHT22;11499;49.486;11.104;2022-07-01T03:10:35;17.30;99.90
22666;DHT22;11499;49.486;11.104;2022-07-01T03:13:00;17.30;99.90
22666;DHT22;11499;49.486;11.104;2022-07-01T03:18:27;17.30;99.90
22666;DHT22;11499;49.486;11.104;2022-07-01T03:20:52;17.20;99.90
22666;DHT22;11499;49.486;11.104;2022-07-01T03:23:18;17.20;99.90
22666;DHT22;11499;49.486;11.104;2022-07-01T03:25:43;17.20;99.90
22666;DHT22;11499;49.486;11.104;2022-07-01T03:28:09;17.20;99.90
22666;DHT22;11499;49.486;11.104;2022-07-01T03:30:34;17.10;99.90
22666;DHT22;11499;49.486;11.104;2022-07-01T03:33:00;17.20;99.90
22666;DHT22;11499;49.486;11.104;2022-07-01T03:35:25;17.20;99.90
22666;DHT22;11499;49.486;11.104;2022-07-01T03:38:11;17.20;99.90
22666;DHT22;11499;49.486;11.104;2022-07-01T03:40:36;17.10;99.90
22666;DHT22;11499;49.486;11.104;2022-07-01T03:45:36;17.10;99.90
22666;DHT22;11499;49.486;11.104;2022-07-01T03:48:02;17.00;99.90
22666;DHT22;11499;49.486;11.104;2022-07-01T03:50:28;17.10;99.90
22666;DHT22;11499;49.486;11.104;2022-07-01T03:52:54;17.00;99.90
22666;DHT22;11499;49.486;11.104;2022-07-01T03:55:38;16.90;99.90
22666;DHT22;11499;49.486;11.104;2022-07-01T03:58:04;16.90;99.90
22666;DHT22;11499;49.486;11.104;2022-07-01T04:00:34;17.00;99.90
22666;DHT22;11499;49.486;11.104;2022-07-01T04:03:01;17.10;99.90
22666;DHT22;11499;49.486;11.104;2022-07-01T04:05:26;17.20;99.90
22666;DHT22;11499;49.486;11.104;2022-07-01T04:07:53;17.20;99.90
22666;DHT22;11499;49.486;11.104;2022-07-01T04:12:54;17.20;99.90
22666;DHT22;11499;49.486;11.104;2022-07-01T04:15:19;17.20;99.90
22666;DHT22;11499;49.486;11.104;2022-07-01T04:17:45;17.30;99.90
22666;DHT22;11499;49.486;11.104;2022-07-01T04:20:11;17.40;99.90
22666;DHT22;11499;49.486;11.104;2022-07-01T04:22:36;17.30;99.90
22666;DHT22;11499;49.486;11.104;2022-07-01T04:25:03;17.10;99.90
22666;DHT22;11499;49.486;11.104;2022-07-01T04:27:30;17.20;99.90
22666;DHT22;11499;49.486;11.104;2022-07-01T04:29:56;17.20;99.90
22666;DHT22;11499;49.486;11.104;2022-07-01T04:32:22;16.90;99.90
22666;DHT22;11499;49.486;11.104;2022-07-01T04:34:47;16.50;99.90
22666;DHT22;11499;49.486;11.104;2022-07-01T04:39:46;16.10;99.90
22666;DHT22;11499;49.486;11.104;2022-07-01T04:42:12;15.80;99.90
22666;DHT22;11499;49.486;11.104;2022-07-01T04:44:39;15.80;99.90
22666;DHT22;11499;49.486;11.104;2022-07-01T04:47:05;15.70;99.90
22666;DHT22;11499;49.486;11.104;2022-07-01T04:49:30;15.60;99.90
22666;DHT22;11499;49.486;11.104;2022-07-01T04:51:57;15.40;99.90
22666;DHT22;11499;49.486;11.104;2022-07-01T04:54:23;15.30;99.90
22666;DHT22;11499;49.486;11.104;2022-07-01T04:56:49;15.40;99.90
22666;DHT22;11499;49.486;11.104;2022-07-01T04:59:16;15.40;99.90
22666;DHT22;11499;49.486;11.104;2022-07-01T05:01:45;15.30;99.90
22666;DHT22;11499;49.486;11.104;2022-07-01T05:06:49;15.30;99.90
22666;DHT22;11499;49.486;11.104;2022-07-01T05:09:15;15.20;99.90
22666;DHT22;11499;49.486;11.104;2022-07-01T05:11:40;15.30;99.90
22666;DHT22;11499;49.486;11.104;2022-07-01T05:14:06;15.40;99.90
22666;DHT22;11499;49.486;11.104;2022-07-01T05:16:32;15.50;99.90
22666;DHT22;11499;49.486;11.104;2022-07-01T05:18:58;15.50;99.90
22666;DHT22;11499;49.486;11.104;2022-07-01T05:21:42;15.40;99.90
22666;DHT22;11499;49.486;11.104;2022-07-01T05:24:26;15.20;99.90
22666;DHT22;11499;49.486;11.104;2022-07-01T05:26:53;15.20;99.90
22666;DHT22;11499;49.486;11.104;2022-07-01T05:29:19;15.20;99.90
22666;DHT22;11499;49.486;11.104;2022-07-01T05:31:44;15.10;99.90
22666;DHT22;11499;49.486;11.104;2022-07-01T05:34:10;15.20;99.90
22666;DHT22;11499;49.486;11.104;2022-07-01T05:38:02;15.20;99.90
22666;DHT22;11499;49.486;11.104;2022-07-01T05:40:27;15.30;99.90
22666;DHT22;11499;49.486;11.104;2022-07-01T05:42:53;15.30;99.90
22666;DHT22;11499;49.486;11.104;2022-07-01T05:45:19;15.30;99.90
22666;DHT22;11499;49.486;11.104;2022-07-01T05:47:44;15.30;99.90
22666;DHT22;11499;49.486;11.104;2022-07-01T05:50:10;15.50;99.90
22666;DHT22;11499;49.486;11.104;2022-07-01T05:52:35;15.30;99.90
22666;DHT22;11499;49.486;11.104;2022-07-01T05:55:01;15.60;99.90
22666;DHT22;11499;49.486;11.104;2022-07-01T05:57:27;15.60;99.90
22666;DHT22;11499;49.486;11.104;2022-07-01T05:59:52;15.40;99.90
22666;DHT22;11499;49.486;11.104;2022-07-01T06:05:00;15.40;99.90
22666;DHT22;11499;49.486;11.104;2022-07-01T06:07:25;15.30;99.90
22666;DHT22;11499;49.486;11.104;2022-07-01T06:09:51;15.40;99.90
22666;DHT22;11499;49.486;11.104;2022-07-01T06:12:16;15.50;99.90
22666;DHT22;11499;49.486;11.104;2022-07-01T06:14:42;15.50;99.90
22666;DHT22;11499;49.486;11.104;2022-07-01T06:17:08;15.50;99.90
22666;DHT22;11499;49.486;11.104;2022-07-01T06:19:34;15.50;99.90
22666;DHT22;11499;49.486;11.104;2022-07-01T06:22:00;15.50;99.90
22666;DHT22;11499;49.486;11.104;2022-07-01T06:24:25;15.40;99.90
22666;DHT22;11499;49.486;11.104;2022-07-01T06:26:51;15.30;99.90
22666;DHT22;11499;49.486;11.104;2022-07-01T06:31:42;15.20;99.90
22666;DHT22;11499;49.486;11.104;2022-07-01T06:34:08;15.20;99.90
22666;DHT22;11499;49.486;11.104;2022-07-01T06:36:33;15.20;99.90
22666;DHT22;11499;49.486;11.104;2022-07-01T06:38:59;15.10;99.90
22666;DHT22;11499;49.486;11.104;2022-07-01T06:41:24;15.20;99.90
22666;DHT22;11499;49.486;11.104;2022-07-01T06:44:02;15.30;99.90
22666;DHT22;11499;49.486;11.104;2022-07-01T06:46:30;15.30;99.90
22666;DHT22;11499;49.486;11.104;2022-07-01T06:48:56;15.20;99.90
22666;DHT22;11499;49.486;11.104;2022-07-01T06:51:23;15.30;99.90
22666;DHT22;11499;49.486;11.104;2022-07-01T06:53:50;15.20;99.90
22666;DHT22;11499;49.486;11.104;2022-07-01T06:56:17;15.20;99.90
22666;DHT22;11499;49.486;11.104;2022-07-01T06:58:42;15.20;99.90
22666;DHT22;11499;49.486;11.104;2022-07-01T07:03:28;15.20;99.90
22666;DHT22;11499;49.486;11.104;2022-07-01T07:05:54;15.20;99.90
22666;DHT22;11499;49.486;11.104;2022-07-01T07:08:19;15.20;99.90
22666;DHT22;11499;49.486;11.104;2022-07-01T07:10:45;15.20;99.90
22666;DHT22;11499;49.486;11.104;2022-07-01T07:13:10;15.30;99.90
22666;DHT22;11499;49.486;11.104;2022-07-01T07:15:36;15.60;99.90
22666;DHT22;11499;49.486;11.104;2022-07-01T07:18:02;15.60;99.90
22666;DHT22;11499;49.486;11.104;2022-07-01T07:20:27;15.60;99.90
22666;DHT22;11499;49.486;11.104;2022-07-01T07:22:53;15.50;99.90
22666;DHT22;11499;49.486;11.104;2022-07-01T07:25:20;15.70;99.90
22666;DHT22;11499;49.486;11.104;2022-07-01T07:30:23;15.60;99.90
22666;DHT22;11499;49.486;11.104;2022-07-01T07:32:49;15.80;99.90
22666;DHT22;11499;49.486;11.104;2022-07-01T07:35:15;15.90;99.90
22666;DHT22;11499;49.486;11.104;2022-07-01T07:37:41;15.90;99.90
22666;DHT22;11499;49.486;11.104;2022-07-01T07:40:07;16.00;99.90
22666;DHT22;11499;49.486;11.104;2022-07-01T07:42:36;16.20;99.90
22666;DHT22;11499;49.486;11.104;2022-07-01T07:45:02;16.30;99.90
22666;DHT22;11499;49.486;11.104;2022-07-01T07:47:28;16.30;99.90
22666;DHT22;11499;49.486;11.104;2022-07-01T07:49:53;16.30;99.90
22666;DHT22;11499;49.486;11.104;2022-07-01T07:55:08;16.10;99.90
22666;DHT22;11499;49.486;11.104;2022-07-01T07:57:36;15.80;99.90
22666;DHT22;11499;49.486;11.104;2022-07-01T08:00:03;15.80;99.90
22666;DHT22;11499;49.486;11.104;2022-07-01T08:02:29;15.70;99.90
22666;DHT22;11499;49.486;11.104;2022-07-01T08:04:54;15.70;99.90
22666;DHT22;11499;49.486;11.104;2022-07-01T08:07:20;15.80;99.90
22666;DHT22;11499;49.486;11.104;2022-07-01T08:09:46;15.80;99.90
22666;DHT22;11499;49.486;11.104;2022-07-01T08:12:14;15.60;99.90
22666;DHT22;11499;49.486;11.104;2022-07-01T08:14:40;15.50;99.90
22666;DHT22;11499;49.486;11.104;2022-07-01T08:17:06;15.40;99.90
22666;DHT22;11499;49.486;11.104;2022-07-01T08:22:35;15.50;99.90
22666;DHT22;11499;49.486;11.104;2022-07-01T08:25:01;15.50;99.90
22666;DHT22;11499;49.486;11.104;2022-07-01T08:27:28;15.50;99.90
22666;DHT22;11499;49.486;11.104;2022-07-01T08:29:53;15.50;99.90
22666;DHT22;11499;49.486;11.104;2022-07-01T08:32:18;15.50;99.90
22666;DHT22;11499;49.486;11.104;2022-07-01T08:34:44;15.50;99.90
22666;DHT22;11499;49.486;11.104;2022-07-01T08:37:10;15.50;99.90
22666;DHT22;11499;49.486;11.104;2022-07-01T08:39:35;15.40;99.90
22666;DHT22;11499;49.486;11.104;2022-07-01T08:42:01;15.50;99.90
22666;DHT22;11499;49.486;11.104;2022-07-01T08:44:26;15.40;99.90
22666;DHT22;11499;49.486;11.104;2022-07-01T08:49:34;15.50;99.90
22666;DHT22;11499;49.486;11.104;2022-07-01T08:51:59;15.20;99.90
22666;DHT22;11499;49.486;11.104;2022-07-01T08:54:25;15.30;99.90
22666;DHT22;11499;49.486;11.104;2022-07-01T08:56:50;15.20;99.90
22666;DHT22;11499;49.486;11.104;2022-07-01T08:59:24;15.20;99.90
22666;DHT22;11499;49.486;11.104;2022-07-01T09:01:59;15.50;99.90
22666;DHT22;11499;49.486;11.104;2022-07-01T09:04:25;15.50;99.90
22666;DHT22;11499;49.486;11.104;2022-07-01T09:06:51;15.40;99.90
22666;DHT22;11499;49.486;11.104;2022-07-01T09:09:22;15.30;99.90
22666;DHT22;11499;49.486;11.104;2022-07-01T09:11:52;15.40;99.90
22666;DHT22;11499;49.486;11.104;2022-07-01T09:17:04;15.40;99.90
22666;DHT22;11499;49.486;11.104;2022-07-01T09:19:35;15.30;99.90
22666;DHT22;11499;49.486;11.104;2022-07-01T09:22:02;15.40;99.90
22666;DHT22;11499;49.486;11.104;2022-07-01T09:24:38;15.30;99.90
22666;DHT22;11499;49.486;11.104;2022-07-01T09:27:12;15.30;99.90
22666;DHT22;11499;49.486;11.104;2022-07-01T09:29:51;15.30;99.90
22666;DHT22;11499;49.486;11.104;2022-07-01T09:32:20;15.20;99.90
22666;DHT22;11499;49.486;11.104;2022-07-01T09:34:49;15.20;99.90
22666;DHT22;11499;49.486;11.104;2022-07-01T09:37:16;15.20;99.90
22666;DHT22;11499;49.486;11.104;2022-07-01T09:42:55;15.50;99.90
22666;DHT22;11499;49.486;11.104;2022-07-01T09:45:20;15.40;99.90
22666;DHT22;11499;49.486;11.104;2022-07-01T09:47:48;15.50;99.90
22666;DHT22;11499;49.486;11.104;2022-07-01T09:50:13;15.70;99.90
22666;DHT22;11499;49.486;11.104;2022-07-01T09:52:39;15.60;99.90
22666;DHT22;11499;49.486;11.104;2022-07-01T09:55:06;15.60;99.90
22666;DHT22;11499;49.486;11.104;2022-07-01T09:57:31;15.80;99.90
22666;DHT22;11499;49.486;11.104;2022-07-01T09:59:57;16.10;99.90
22666;DHT22;11499;49.486;11.104;2022-07-01T10:02:23;16.30;99.90
22666;DHT22;11499;49.486;11.104;2022-07-01T10:04:53;16.20;99.90
22666;DHT22;11499;49.486;11.104;2022-07-01T10:13:06;16.10;99.90
22666;DHT22;11499;49.486;11.104;2022-07-01T10:15:34;16.20;99.90
22666;DHT22;11499;49.486;11.104;2022-07-01T10:18:00;16.50;99.90
22666;DHT22;11499;49.486;11.104;2022-07-01T10:20:26;16.80;99.90
22666;DHT22;11499;49.486;11.104;2022-07-01T10:23:06;16.70;99.90
22666;DHT22;11499;49.486;11.104;2022-07-01T10:25:47;16.50;99.90
22666;DHT22;11499;49.486;11.104;2022-07-01T10:28:24;16.80;99.90
22666;DHT22;11499;49.486;11.104;2022-07-01T10:31:06;17.00;99.90
22666;DHT22;11499;49.486;11.104;2022-07-01T10:36:38;17.00;99.90
22666;DHT22;11499;49.486;11.104;2022-07-01T10:39:09;16.40;99.90
22666;DHT22;11499;49.486;11.104;2022-07-01T10:44:13;16.20;99.90
22666;DHT22;11499;49.486;11.104;2022-07-01T10:47:03;16.00;99.90
22666;DHT22;11499;49.486;11.104;2022-07-01T10:52:00;16.20;99.90
22666;DHT22;11499;49.486;11.104;2022-07-01T10:57:18;16.30;99.90
22666;DHT22;11499;49.486;11.104;2022-07-01T11:02:35;16.10;99.90
22666;DHT22;11499;49.486;11.104;2022-07-01T11:07:30;15.90;99.90
22666;DHT22;11499;49.486;11.104;2022-07-01T11:09:57;15.80;99.90
22666;DHT22;11499;49.486;11.104;2022-07-01T11:12:23;15.70;99.90
22666;DHT22;11499;49.486;11.104;2022-07-01T11:14:50;15.60;99.90
22666;DHT22;11499;49.486;11.104;2022-07-01T11:17:16;15.70;99.90
22666;DHT22;11499;49.486;11.104;2022-07-01T11:19:53;15.60;99.90
22666;DHT22;11499;49.486;11.104;2022-07-01T11:22:20;15.50;99.90
22666;DHT22;11499;49.486;11.104;2022-07-01T11:24:46;15.50;99.90
22666;DHT22;11499;49.486;11.104;2022-07-01T11:29:37;15.50;99.90
22666;DHT22;11499;49.486;11.104;2022-07-01T11:32:03;15.30;99.90
22666;DHT22;11499;49.486;11.104;2022-07-01T11:34:29;15.10;99.90
22666;DHT22;11499;49.486;11.104;2022-07-01T11:36:56;15.10;99.90
22666;DHT22;11499;49.486;11.104;2022-07-01T11:39:41;15.00;99.90
22666;DHT22;11499;49.486;11.104;2022-07-01T11:42:09;15.00;99.90
22666;DHT22;11499;49.486;11.104;2022-07-01T11:44:39;15.20;99.90
22666;DHT22;11499;49.486;11.104;2022-07-01T11:47:07;15.00;99.90
22666;DHT22;11499;49.486;11.104;2022-07-01T11:49:34;15.00;99.90
22666;DHT22;11499;49.486;11.104;2022-07-01T11:54:55;15.10;99.90
22666;DHT22;11499;49.486;11.104;2022-07-01T11:57:25;15.20;99.90
22666;DHT22;11499;49.486;11.104;2022-07-01T11:59:53;15.20;99.90
22666;DHT22;11499;49.486;11.104;2022-07-01T12:02:21;15.40;99.90
22666;DHT22;11499;49.486;11.104;2022-07-01T12:04:48;15.40;99.90
22666;DHT22;11499;49.486;11.104;2022-07-01T12:07:15;15.60;99.90
22666;DHT22;11499;49.486;11.104;2022-07-01T12:09:42;15.30;99.90
22666;DHT22;11499;49.486;11.104;2022-07-01T12:12:16;15.50;99.90
22666;DHT22;11499;49.486;11.104;2022-07-01T12:14:53;15.80;99.90
22666;DHT22;11499;49.486;11.104;2022-07-01T12:20:01;15.90;99.90
22666;DHT22;11499;49.486;11.104;2022-07-01T12:22:26;15.90;99.90
22666;DHT22;11499;49.486;11.104;2022-07-01T12:25:07;16.00;99.90
22666;DHT22;11499;49.486;11.104;2022-07-01T12:27:34;15.90;99.90
22666;DHT22;11499;49.486;11.104;2022-07-01T12:30:01;15.70;99.90
22666;DHT22;11499;49.486;11.104;2022-07-01T12:32:27;15.50;99.90
22666;DHT22;11499;49.486;11.104;2022-07-01T12:35:01;15.20;99.90
22666;DHT22;11499;49.486;11.104;2022-07-01T12:37:37;15.40;99.90
22666;DHT22;11499;49.486;11.104;2022-07-01T12:40:08;15.20;99.90
22666;DHT22;11499;49.486;11.104;2022-07-01T12:42:45;14.90;99.90
22666;DHT22;11499;49.486;11.104;2022-07-01T12:47:31;14.70;99.90
22666;DHT22;11499;49.486;11.104;2022-07-01T12:52:36;14.60;99.90
22666;DHT22;11499;49.486;11.104;2022-07-01T12:55:16;14.70;99.90
22666;DHT22;11499;49.486;11.104;2022-07-01T12:57:42;14.70;99.90
22666;DHT22;11499;49.486;11.104;2022-07-01T13:00:08;14.60;99.90
22666;DHT22;11499;49.486;11.104;2022-07-01T13:02:34;14.70;99.90
22666;DHT22;11499;49.486;11.104;2022-07-01T13:04:59;14.80;99.90
22666;DHT22;11499;49.486;11.104;2022-07-01T13:07:25;14.80;99.90
22666;DHT22;11499;49.486;11.104;2022-07-01T13:09:50;14.80;99.90
22666;DHT22;11499;49.486;11.104;2022-07-01T13:14:58;14.60;99.90
22666;DHT22;11499;49.486;11.104;2022-07-01T13:17:24;14.60;99.90
22666;DHT22;11499;49.486;11.104;2022-07-01T13:19:50;14.50;99.90
22666;DHT22;11499;49.486;11.104;2022-07-01T13:22:16;14.60;99.90
22666;DHT22;11499;49.486;11.104;2022-07-01T13:24:41;14.70;99.90
22666;DHT22;11499;49.486;11.104;2022-07-01T13:27:07;14.90;99.90
22666;DHT22;11499;49.486;11.104;2022-07-01T13:29:33;14.80;99.90
22666;DHT22;11499;49.486;11.104;2022-07-01T13:31:59;14.70;99.90
22666;DHT22;11499;49.486;11.104;2022-07-01T13:34:24;14.80;99.90
22666;DHT22;11499;49.486;11.104;2022-07-01T13:36:50;14.90;99.90
22666;DHT22;11499;49.486;11.104;2022-07-01T13:41:20;15.00;99.90
22666;DHT22;11499;49.486;11.104;2022-07-01T13:43:46;15.10;99.90
22666;DHT22;11499;49.486;11.104;2022-07-01T13:46:12;15.20;99.90
22666;DHT22;11499;49.486;11.104;2022-07-01T13:48:38;15.40;99.90
22666;DHT22;11499;49.486;11.104;2022-07-01T13:51:03;15.60;99.90
22666;DHT22;11499;49.486;11.104;2022-07-01T13:53:29;15.70;99.90
22666;DHT22;11499;49.486;11.104;2022-07-01T13:55:54;16.10;99.90
22666;DHT22;11499;49.486;11.104;2022-07-01T13:58:20;16.50;99.90
22666;DHT22;11499;49.486;11.104;2022-07-01T14:00:45;16.90;99.90
22666;DHT22;11499;49.486;11.104;2022-07-01T14:03:11;16.80;99.90
22666;DHT22;11499;49.486;11.104;2022-07-01T14:08:16;17.10;99.90
22666;DHT22;11499;49.486;11.104;2022-07-01T14:10:42;17.20;99.90
22666;DHT22;11499;49.486;11.104;2022-07-01T14:13:07;17.40;99.90
22666;DHT22;11499;49.486;11.104;2022-07-01T14:15:33;17.90;99.90
22666;DHT22;11499;49.486;11.104;2022-07-01T14:18:01;17.70;99.90
22666;DHT22;11499;49.486;11.104;2022-07-01T14:20:26;17.30;99.90
22666;DHT22;11499;49.486;11.104;2022-07-01T14:22:52;17.30;99.90
22666;DHT22;11499;49.486;11.104;2022-07-01T14:25:19;17.00;99.90
22666;DHT22;11499;49.486;11.104;2022-07-01T14:27:44;16.60;99.90
22666;DHT22;11499;49.486;11.104;2022-07-01T14:30:12;16.50;99.90
22666;DHT22;11499;49.486;11.104;2022-07-01T14:35:13;16.00;99.90
22666;DHT22;11499;49.486;11.104;2022-07-01T14:37:39;16.20;99.90
22666;DHT22;11499;49.486;11.104;2022-07-01T14:40:05;16.40;99.90
22666;DHT22;11499;49.486;11.104;2022-07-01T14:42:31;16.50;99.90
22666;DHT22;11499;49.486;11.104;2022-07-01T14:44:57;16.70;99.90
22666;DHT22;11499;49.486;11.104;2022-07-01T14:47:23;16.90;99.90
22666;DHT22;11499;49.486;11.104;2022-07-01T14:49:49;17.40;99.90
22666;DHT22;11499;49.486;11.104;2022-07-01T14:52:19;17.80;99.90
22666;DHT22;11499;49.486;11.104;2022-07-01T14:54:45;18.20;99.90
22666;DHT22;11499;49.486;11.104;2022-07-01T14:57:11;18.40;99.90
22666;DHT22;11499;49.486;11.104;2022-07-01T15:02:10;19.10;99.90
22666;DHT22;11499;49.486;11.104;2022-07-01T15:04:35;18.30;99.90
22666;DHT22;11499;49.486;11.104;2022-07-01T15:07:01;17.80;99.90
22666;DHT22;11499;49.486;11.104;2022-07-01T15:09:26;18.20;99.90
22666;DHT22;11499;49.486;11.104;2022-07-01T15:11:52;18.80;99.90
22666;DHT22;11499;49.486;11.104;2022-07-01T15:14:18;19.20;99.90
22666;DHT22;11499;49.486;11.104;2022-07-01T15:16:44;19.20;99.90
22666;DHT22;11499;49.486;11.104;2022-07-01T15:19:10;19.10;99.90
22666;DHT22;11499;49.486;11.104;2022-07-01T15:21:37;19.50;99.90
22666;DHT22;11499;49.486;11.104;2022-07-01T15:24:03;19.80;99.90
22666;DHT22;11499;49.486;11.104;2022-07-01T15:28:48;20.10;99.90
22666;DHT22;11499;49.486;11.104;2022-07-01T15:31:13;19.70;99.90
22666;DHT22;11499;49.486;11.104;2022-07-01T15:33:39;19.40;99.90
22666;DHT22;11499;49.486;11.104;2022-07-01T15:36:05;19.80;99.90
22666;DHT22;11499;49.486;11.104;2022-07-01T15:38:31;19.40;99.90
22666;DHT22;11499;49.486;11.104;2022-07-01T15:40:56;18.90;99.90
22666;DHT22;11499;49.486;11.104;2022-07-01T15:43:22;18.80;99.90
22666;DHT22;11499;49.486;11.104;2022-07-01T15:45:47;18.80;99.90
22666;DHT22;11499;49.486;11.104;2022-07-01T15:48:13;18.80;99.90
22666;DHT22;11499;49.486;11.104;2022-07-01T15:50:40;18.40;99.90
22666;DHT22;11499;49.486;11.104;2022-07-01T15:56:16;18.70;99.90
22666;DHT22;11499;49.486;11.104;2022-07-01T15:58:42;18.80;99.90
22666;DHT22;11499;49.486;11.104;2022-07-01T16:01:09;18.80;99.90
22666;DHT22;11499;49.486;11.104;2022-07-01T16:03:35;18.60;99.90
22666;DHT22;11499;49.486;11.104;2022-07-01T16:06:03;18.80;99.90
22666;DHT22;11499;49.486;11.104;2022-07-01T16:08:35;18.80;99.90
22666;DHT22;11499;49.486;11.104;2022-07-01T16:11:10;19.00;99.90
22666;DHT22;11499;49.486;11.104;2022-07-01T16:13:49;19.40;98.00
22666;DHT22;11499;49.486;11.104;2022-07-01T16:16:23;20.10;98.90
22666;DHT22;11499;49.486;11.104;2022-07-01T16:22:03;21.70;90.80
22666;DHT22;11499;49.486;11.104;2022-07-01T16:24:29;20.60;93.10
22666;DHT22;11499;49.486;11.104;2022-07-01T16:26:55;21.90;92.80
22666;DHT22;11499;49.486;11.104;2022-07-01T16:29:22;21.10;91.80
22666;DHT22;11499;49.486;11.104;2022-07-01T16:31:49;20.70;92.40
22666;DHT22;11499;49.486;11.104;2022-07-01T16:34:15;20.30;93.10
22666;DHT22;11499;49.486;11.104;2022-07-01T16:36:44;20.50;93.30
22666;DHT22;11499;49.486;11.104;2022-07-01T16:39:17;21.80;92.20
22666;DHT22;11499;49.486;11.104;2022-07-01T16:41:53;22.20;90.10
22666;DHT22;11499;49.486;11.104;2022-07-01T16:44:38;23.50;87.50
22666;DHT22;11499;49.486;11.104;2022-07-01T16:49:26;26.30;77.00
22666;DHT22;11499;49.486;11.104;2022-07-01T16:51:56;24.80;75.20
22666;DHT22;11499;49.486;11.104;2022-07-01T16:54:25;23.30;79.40
22666;DHT22;11499;49.486;11.104;2022-07-01T16:56:55;22.30;78.80
22666;DHT22;11499;49.486;11.104;2022-07-01T16:59:22;23.10;77.90
22666;DHT22;11499;49.486;11.104;2022-07-01T17:01:48;25.20;72.80
22666;DHT22;11499;49.486;11.104;2022-07-01T17:04:14;25.90;69.40
22666;DHT22;11499;49.486;11.104;2022-07-01T17:06:42;27.20;65.60
22666;DHT22;11499;49.486;11.104;2022-07-01T17:09:09;27.00;65.10
22666;DHT22;11499;49.486;11.104;2022-07-01T17:11:35;26.40;65.70